sensor_id;sensor_type;location;lat;lon;timestamp;temperature;humidity
52859;DHT22;38721;53.098;6.596;2022-10-13T00:02:13;9.80;99.90
52859;DHT22;38721;53.098;6.596;2022-10-13T00:04:39;9.80;99.90
52859;DHT22;38721;53.098;6.596;2022-10-13T00:07:05;9.70;99.90
52859;DHT22;38721;53.098;6.596;2022-10-13T00:09:31;9.80;99.90
52859;DHT22;38721;53.098;6.596;2022-10-13T00:11:57;9.80;99.90
52859;DHT22;38721;53.098;6.596;2022-10-13T00:14:22;9.80;99.90
52859;DHT22;38721;53.098;6.596;2022-10-13T00:16:48;9.80;99.90
52859;DHT22;38721;53.098;6.596;2022-10-13T00:19:14;9.90;99.90
52859;DHT22;38721;53.098;6.596;2022-10-13T00:21:39;9.80;99.90
52859;DHT22;38721;53.098;6.596;2022-10-13T00:24:11;9.90;99.90
52859;DHT22;38721;53.098;6.596;2022-10-13T00:26:37;9.90;99.90
52859;DHT22;38721;53.098;6.596;2022-10-13T00:29:03;9.90;99.90
52859;DHT22;38721;53.098;6.596;2022-10-13T00:31:30;9.90;99.90
52859;DHT22;38721;53.098;6.596;2022-10-13T00:33:58;9.90;99.90
52859;DHT22;38721;53.098;6.596;2022-10-13T00:36:24;10.00;99.90
52859;DHT22;38721;53.098;6.596;2022-10-13T00:38:51;9.90;99.90
52859;DHT22;38721;53.098;6.596;2022-10-13T00:41:16;10.00;99.90
52859;DHT22;38721;53.098;6.596;2022-10-13T00:43:58;9.90;99.90
52859;DHT22;38721;53.098;6.596;2022-10-13T00:46:33;10.00;99.90
52859;DHT22;38721;53.098;6.596;2022-10-13T00:49:11;10.00;99.90
52859;DHT22;38721;53.098;6.596;2022-10-13T00:51:41;10.00;99.90
52859;DHT22;38721;53.098;6.596;2022-10-13T00:54:10;9.90;99.90
52859;DHT22;38721;53.098;6.596;2022-10-13T00:56:38;9.90;99.90
52859;DHT22;38721;53.098;6.596;2022-10-13T00:59:18;9.90;99.90
52859;DHT22;38721;53.098;6.596;2022-10-13T01:01:50;10.00;99.90
52859;DHT22;38721;53.098;6.596;2022-10-13T01:04:17;9.90;99.90
52859;DHT22;38721;53.098;6.596;2022-10-13T01:06:44;10.00;99.90
52859;DHT22;38721;53.098;6.596;2022-10-13T01:09:10;9.90;99.90
52859;DHT22;38721;53.098;6.596;2022-10-13T01:14:35;10.00;99.90
52859;DHT22;38721;53.098;6.596;2022-10-13T01:17:17;10.00;99.90
52859;DHT22;38721;53.098;6.596;2022-10-13T01:30:54;9.90;99.90
52859;DHT22;38721;53.098;6.596;2022-10-13T01:33:39;10.00;99.90
52859;DHT22;38721;53.098;6.596;2022-10-13T01:36:32;10.00;99.90
52859;DHT22;38721;53.098;6.596;2022-10-13T01:41:40;10.00;99.90
52859;DHT22;38721;53.098;6.596;2022-10-13T01:46:43;10.00;99.90
52859;DHT22;38721;53.098;6.596;2022-10-13T01:49:12;9.90;99.90
52859;DHT22;38721;53.098;6.596;2022-10-13T01:51:40;9.80;99.90
52859;DHT22;38721;53.098;6.596;2022-10-13T01:54:06;9.90;99.90
52859;DHT22;38721;53.098;6.596;2022-10-13T01:56:35;9.90;99.90
52859;DHT22;38721;53.098;6.596;2022-10-13T01:59:05;9.80;99.90
52859;DHT22;38721;53.098;6.596;2022-10-13T02:04:20;9.90;99.90
52859;DHT22;38721;53.098;6.596;2022-10-13T02:09:43;9.80;99.90
52859;DHT22;38721;53.098;6.596;2022-10-13T02:12:30;9.90;99.90
52859;DHT22;38721;53.098;6.596;2022-10-13T02:14:58;9.90;99.90
52859;DHT22;38721;53.098;6.596;2022-10-13T02:17:26;9.80;99.90
52859;DHT22;38721;53.098;6.596;2022-10-13T02:19:59;9.90;99.90
52859;DHT22;38721;53.098;6.596;2022-10-13T02:22:29;9.90;99.90
52859;DHT22;38721;53.098;6.596;2022-10-13T02:24:56;9.80;99.90
52859;DHT22;38721;53.098;6.596;2022-10-13T02:27:22;9.90;99.90
52859;DHT22;38721;53.098;6.596;2022-10-13T02:29:57;9.80;99.90
52859;DHT22;38721;53.098;6.596;2022-10-13T02:32:23;9.80;99.90
52859;DHT22;38721;53.098;6.596;2022-10-13T02:34:49;9.80;99.90
52859;DHT22;38721;53.098;6.596;2022-10-13T02:37:15;9.80;99.90
52859;DHT22;38721;53.098;6.596;2022-10-13T02:39:41;9.80;99.90
52859;DHT22;38721;53.098;6.596;2022-10-13T02:42:07;9.80;99.90
52859;DHT22;38721;53.098;6.596;2022-10-13T02:44:33;9.80;99.90
52859;DHT22;38721;53.098;6.596;2022-10-13T02:46:59;9.80;99.90
52859;DHT22;38721;53.098;6.596;2022-10-13T02:49:24;9.80;99.90
52859;DHT22;38721;53.098;6.596;2022-10-13T02:51:51;9.90;99.90
52859;DHT22;38721;53.098;6.596;2022-10-13T02:54:17;9.80;99.90
52859;DHT22;38721;53.098;6.596;2022-10-13T02:56:43;9.80;99.90
52859;DHT22;38721;53.098;6.596;2022-10-13T02:59:09;9.90;99.90
52859;DHT22;38721;53.098;6.596;2022-10-13T03:01:34;9.80;99.90
52859;DHT22;38721;53.098;6.596;2022-10-13T03:04:06;9.80;99.90
52859;DHT22;38721;53.098;6.596;2022-10-13T03:06:32;9.90;99.90
52859;DHT22;38721;53.098;6.596;2022-10-13T03:08:57;10.00;99.90
52859;DHT22;38721;53.098;6.596;2022-10-13T03:11:24;10.00;99.90
52859;DHT22;38721;53.098;6.596;2022-10-13T03:13:49;10.00;99.90
52859;DHT22;38721;53.098;6.596;2022-10-13T03:16:15;10.00;99.90
52859;DHT22;38721;53.098;6.596;2022-10-13T03:18:41;10.00;99.90
52859;DHT22;38721;53.098;6.596;2022-10-13T03:21:08;10.10;99.90
52859;DHT22;38721;53.098;6.596;2022-10-13T03:23:34;10.00;99.90
52859;DHT22;38721;53.098;6.596;2022-10-13T03:26:00;10.10;99.90
52859;DHT22;38721;53.098;6.596;2022-10-13T03:28:25;10.10;99.90
52859;DHT22;38721;53.098;6.596;2022-10-13T03:31:02;10.10;99.90
52859;DHT22;38721;53.098;6.596;2022-10-13T03:33:29;10.00;99.90
52859;DHT22;38721;53.098;6.596;2022-10-13T03:36:06;10.10;99.90
52859;DHT22;38721;53.098;6.596;2022-10-13T03:38:33;10.20;99.90
52859;DHT22;38721;53.098;6.596;2022-10-13T03:41:10;10.20;99.90
52859;DHT22;38721;53.098;6.596;2022-10-13T03:43:36;10.10;99.90
52859;DHT22;38721;53.098;6.596;2022-10-13T03:46:04;10.20;99.90
52859;DHT22;38721;53.098;6.596;2022-10-13T03:48:30;10.20;99.90
52859;DHT22;38721;53.098;6.596;2022-10-13T03:51:06;10.30;99.90
52859;DHT22;38721;53.098;6.596;2022-10-13T03:53:33;10.30;99.90
52859;DHT22;38721;53.098;6.596;2022-10-13T03:55:59;10.30;99.90
52859;DHT22;38721;53.098;6.596;2022-10-13T03:58:25;10.30;99.90
52859;DHT22;38721;53.098;6.596;2022-10-13T04:00:53;10.20;99.90
52859;DHT22;38721;53.098;6.596;2022-10-13T04:03:19;10.20;99.90
52859;DHT22;38721;53.098;6.596;2022-10-13T04:05:45;10.30;99.90
52859;DHT22;38721;53.098;6.596;2022-10-13T04:08:11;10.30;99.90
52859;DHT22;38721;53.098;6.596;2022-10-13T04:10:38;10.30;99.90
52859;DHT22;38721;53.098;6.596;2022-10-13T04:13:04;10.30;99.90
52859;DHT22;38721;53.098;6.596;2022-10-13T04:15:30;10.30;99.90
52859;DHT22;38721;53.098;6.596;2022-10-13T04:18:00;10.20;99.90
52859;DHT22;38721;53.098;6.596;2022-10-13T04:20:26;10.30;99.90
52859;DHT22;38721;53.098;6.596;2022-10-13T04:22:51;10.20;99.90
52859;DHT22;38721;53.098;6.596;2022-10-13T04:25:17;10.30;99.90
52859;DHT22;38721;53.098;6.596;2022-10-13T04:27:47;10.30;99.90
52859;DHT22;38721;53.098;6.596;2022-10-13T04:30:13;10.40;99.90
52859;DHT22;38721;53.098;6.596;2022-10-13T04:32:39;10.40;99.90
52859;DHT22;38721;53.098;6.596;2022-10-13T04:35:04;10.20;99.90
52859;DHT22;38721;53.098;6.596;2022-10-13T04:37:31;10.30;99.90
52859;DHT22;38721;53.098;6.596;2022-10-13T04:39:56;10.30;99.90
52859;DHT22;38721;53.098;6.596;2022-10-13T04:42:22;10.40;99.90
52859;DHT22;38721;53.098;6.596;2022-10-13T04:44:51;10.30;99.90
52859;DHT22;38721;53.098;6.596;2022-10-13T04:47:16;10.40;99.90
52859;DHT22;38721;53.098;6.596;2022-10-13T04:49:42;10.30;99.90
52859;DHT22;38721;53.098;6.596;2022-10-13T04:52:08;10.30;99.90
52859;DHT22;38721;53.098;6.596;2022-10-13T04:54:33;10.30;99.90
52859;DHT22;38721;53.098;6.596;2022-10-13T04:57:01;10.40;99.90
52859;DHT22;38721;53.098;6.596;2022-10-13T04:59:27;10.30;99.90
52859;DHT22;38721;53.098;6.596;2022-10-13T05:01:55;10.40;99.90
52859;DHT22;38721;53.098;6.596;2022-10-13T05:04:21;10.30;99.90
52859;DHT22;38721;53.098;6.596;2022-10-13T05:06:46;10.40;99.90
52859;DHT22;38721;53.098;6.596;2022-10-13T05:09:14;10.50;99.90
52859;DHT22;38721;53.098;6.596;2022-10-13T05:11:42;10.40;99.90
52859;DHT22;38721;53.098;6.596;2022-10-13T05:14:09;10.50;99.90
52859;DHT22;38721;53.098;6.596;2022-10-13T05:16:35;10.40;99.90
52859;DHT22;38721;53.098;6.596;2022-10-13T05:19:00;10.50;99.90
52859;DHT22;38721;53.098;6.596;2022-10-13T05:21:27;10.50;99.90
52859;DHT22;38721;53.098;6.596;2022-10-13T05:23:54;10.50;99.90
52859;DHT22;38721;53.098;6.596;2022-10-13T05:26:23;10.60;99.90
52859;DHT22;38721;53.098;6.596;2022-10-13T05:28:52;10.50;99.90
52859;DHT22;38721;53.098;6.596;2022-10-13T05:31:20;10.50;99.90
52859;DHT22;38721;53.098;6.596;2022-10-13T05:33:46;10.60;99.90
52859;DHT22;38721;53.098;6.596;2022-10-13T05:36:18;10.60;99.90
52859;DHT22;38721;53.098;6.596;2022-10-13T05:38:44;10.60;99.90
52859;DHT22;38721;53.098;6.596;2022-10-13T05:41:13;10.60;99.90
52859;DHT22;38721;53.098;6.596;2022-10-13T05:43:40;10.70;99.90
52859;DHT22;38721;53.098;6.596;2022-10-13T05:46:06;10.70;99.90
52859;DHT22;38721;53.098;6.596;2022-10-13T05:48:36;10.80;99.90
52859;DHT22;38721;53.098;6.596;2022-10-13T05:51:22;10.80;99.90
52859;DHT22;38721;53.098;6.596;2022-10-13T05:53:52;10.70;99.90
52859;DHT22;38721;53.098;6.596;2022-10-13T05:56:22;10.70;99.90
52859;DHT22;38721;53.098;6.596;2022-10-13T05:58:53;10.80;99.90
52859;DHT22;38721;53.098;6.596;2022-10-13T06:01:23;10.70;99.90
52859;DHT22;38721;53.098;6.596;2022-10-13T06:03:51;10.80;99.90
52859;DHT22;38721;53.098;6.596;2022-10-13T06:06:18;10.70;99.90
52859;DHT22;38721;53.098;6.596;2022-10-13T06:08:43;10.90;99.90
52859;DHT22;38721;53.098;6.596;2022-10-13T06:11:09;10.80;99.90
52859;DHT22;38721;53.098;6.596;2022-10-13T06:13:35;10.80;99.90
52859;DHT22;38721;53.098;6.596;2022-10-13T06:16:01;11.00;99.90
52859;DHT22;38721;53.098;6.596;2022-10-13T06:18:26;11.00;99.90
52859;DHT22;38721;53.098;6.596;2022-10-13T06:20:52;10.80;99.90
52859;DHT22;38721;53.098;6.596;2022-10-13T06:23:18;11.10;99.90
52859;DHT22;38721;53.098;6.596;2022-10-13T06:25:51;11.00;99.90
52859;DHT22;38721;53.098;6.596;2022-10-13T06:28:17;11.00;99.90
52859;DHT22;38721;53.098;6.596;2022-10-13T06:30:44;11.10;99.90
52859;DHT22;38721;53.098;6.596;2022-10-13T06:33:13;11.10;99.90
52859;DHT22;38721;53.098;6.596;2022-10-13T06:35:39;11.10;99.90
52859;DHT22;38721;53.098;6.596;2022-10-13T06:38:05;11.10;99.90
52859;DHT22;38721;53.098;6.596;2022-10-13T06:40:31;11.30;99.90
52859;DHT22;38721;53.098;6.596;2022-10-13T06:42:56;11.30;99.90
52859;DHT22;38721;53.098;6.596;2022-10-13T06:45:22;11.40;99.90
52859;DHT22;38721;53.098;6.596;2022-10-13T06:47:48;11.40;99.90
52859;DHT22;38721;53.098;6.596;2022-10-13T06:50:14;11.50;99.90
52859;DHT22;38721;53.098;6.596;2022-10-13T06:52:39;11.50;99.90
52859;DHT22;38721;53.098;6.596;2022-10-13T06:55:05;11.60;99.90
52859;DHT22;38721;53.098;6.596;2022-10-13T06:57:31;11.40;99.90
52859;DHT22;38721;53.098;6.596;2022-10-13T06:59:57;11.60;99.90
52859;DHT22;38721;53.098;6.596;2022-10-13T07:02:23;11.60;99.90
52859;DHT22;38721;53.098;6.596;2022-10-13T07:04:51;11.60;99.90
52859;DHT22;38721;53.098;6.596;2022-10-13T07:07:17;11.70;99.90
52859;DHT22;38721;53.098;6.596;2022-10-13T07:09:43;11.80;99.90
52859;DHT22;38721;53.098;6.596;2022-10-13T07:12:08;11.70;99.90
52859;DHT22;38721;53.098;6.596;2022-10-13T07:14:34;11.80;99.90
52859;DHT22;38721;53.098;6.596;2022-10-13T07:16:59;11.70;99.90
52859;DHT22;38721;53.098;6.596;2022-10-13T07:19:25;11.90;99.90
52859;DHT22;38721;53.098;6.596;2022-10-13T07:21:51;11.80;99.90
52859;DHT22;38721;53.098;6.596;2022-10-13T07:24:17;11.80;99.90
52859;DHT22;38721;53.098;6.596;2022-10-13T07:26:42;11.80;99.90
52859;DHT22;38721;53.098;6.596;2022-10-13T07:29:08;12.00;99.90
52859;DHT22;38721;53.098;6.596;2022-10-13T07:31:34;12.00;99.90
52859;DHT22;38721;53.098;6.596;2022-10-13T07:34:00;12.00;99.90
52859;DHT22;38721;53.098;6.596;2022-10-13T07:36:26;12.10;99.90
52859;DHT22;38721;53.098;6.596;2022-10-13T07:38:52;12.00;99.90
52859;DHT22;38721;53.098;6.596;2022-10-13T07:41:18;12.10;99.90
52859;DHT22;38721;53.098;6.596;2022-10-13T07:43:44;12.40;99.90
52859;DHT22;38721;53.098;6.596;2022-10-13T07:46:13;12.50;99.90
52859;DHT22;38721;53.098;6.596;2022-10-13T07:48:39;12.50;99.90
52859;DHT22;38721;53.098;6.596;2022-10-13T07:51:07;12.60;99.90
52859;DHT22;38721;53.098;6.596;2022-10-13T07:53:33;12.40;99.90
52859;DHT22;38721;53.098;6.596;2022-10-13T07:56:04;12.40;99.90
52859;DHT22;38721;53.098;6.596;2022-10-13T07:58:30;12.40;99.90
52859;DHT22;38721;53.098;6.596;2022-10-13T08:01:00;12.70;99.90
52859;DHT22;38721;53.098;6.596;2022-10-13T08:03:27;12.50;99.90
52859;DHT22;38721;53.098;6.596;2022-10-13T08:05:53;12.70;99.90
52859;DHT22;38721;53.098;6.596;2022-10-13T08:08:19;12.80;99.90
52859;DHT22;38721;53.098;6.596;2022-10-13T08:10:48;12.70;99.90
52859;DHT22;38721;53.098;6.596;2022-10-13T08:13:14;12.80;99.90
52859;DHT22;38721;53.098;6.596;2022-10-13T08:15:41;13.00;99.90
52859;DHT22;38721;53.098;6.596;2022-10-13T08:18:11;13.10;99.90
52859;DHT22;38721;53.098;6.596;2022-10-13T08:20:44;13.10;99.90
52859;DHT22;38721;53.098;6.596;2022-10-13T08:23:19;13.10;99.90
52859;DHT22;38721;53.098;6.596;2022-10-13T08:25:44;13.30;99.90
52859;DHT22;38721;53.098;6.596;2022-10-13T08:28:26;13.40;99.90
52859;DHT22;38721;53.098;6.596;2022-10-13T08:30:53;13.40;99.90
52859;DHT22;38721;53.098;6.596;2022-10-13T08:33:25;13.30;99.90
52859;DHT22;38721;53.098;6.596;2022-10-13T08:35:51;13.30;99.90
52859;DHT22;38721;53.098;6.596;2022-10-13T08:38:17;13.40;99.90
52859;DHT22;38721;53.098;6.596;2022-10-13T08:40:47;13.30;99.90
52859;DHT22;38721;53.098;6.596;2022-10-13T08:43:17;13.30;99.90
52859;DHT22;38721;53.098;6.596;2022-10-13T08:45:44;13.20;99.90
52859;DHT22;38721;53.098;6.596;2022-10-13T08:48:23;13.10;99.90
52859;DHT22;38721;53.098;6.596;2022-10-13T08:50:55;13.40;99.90
52859;DHT22;38721;53.098;6.596;2022-10-13T08:53:34;13.40;99.90
52859;DHT22;38721;53.098;6.596;2022-10-13T08:56:23;13.50;99.90
52859;DHT22;38721;53.098;6.596;2022-10-13T08:58:51;13.40;99.90
52859;DHT22;38721;53.098;6.596;2022-10-13T09:06:49;13.50;99.90
52859;DHT22;38721;53.098;6.596;2022-10-13T09:09:16;13.60;99.90
52859;DHT22;38721;53.098;6.596;2022-10-13T09:11:44;13.30;99.90
52859;DHT22;38721;53.098;6.596;2022-10-13T09:14:19;13.30;99.90
52859;DHT22;38721;53.098;6.596;2022-10-13T09:16:45;13.60;99.90
52859;DHT22;38721;53.098;6.596;2022-10-13T09:19:17;13.40;99.90
52859;DHT22;38721;53.098;6.596;2022-10-13T09:21:44;13.40;99.90
52859;DHT22;38721;53.098;6.596;2022-10-13T09:24:15;13.50;99.90
52859;DHT22;38721;53.098;6.596;2022-10-13T09:26:45;13.50;99.90
52859;DHT22;38721;53.098;6.596;2022-10-13T09:29:25;13.60;99.90
52859;DHT22;38721;53.098;6.596;2022-10-13T09:32:08;13.80;99.90
52859;DHT22;38721;53.098;6.596;2022-10-13T09:34:37;13.80;99.90
52859;DHT22;38721;53.098;6.596;2022-10-13T09:37:05;14.20;99.90
52859;DHT22;38721;53.098;6.596;2022-10-13T09:39:38;14.10;99.90
52859;DHT22;38721;53.098;6.596;2022-10-13T09:42:25;14.00;99.90
52859;DHT22;38721;53.098;6.596;2022-10-13T09:45:00;14.20;99.90
52859;DHT22;38721;53.098;6.596;2022-10-13T09:47:29;14.10;99.90
52859;DHT22;38721;53.098;6.596;2022-10-13T09:50:18;14.40;99.90
52859;DHT22;38721;53.098;6.596;2022-10-13T09:52:45;14.30;99.90
52859;DHT22;38721;53.098;6.596;2022-10-13T09:55:32;14.50;99.90
52859;DHT22;38721;53.098;6.596;2022-10-13T09:58:09;14.50;99.90
52859;DHT22;38721;53.098;6.596;2022-10-13T10:00:37;14.30;99.90
52859;DHT22;38721;53.098;6.596;2022-10-13T10:05:43;14.60;99.90
52859;DHT22;38721;53.098;6.596;2022-10-13T10:08:52;14.40;99.90
52859;DHT22;38721;53.098;6.596;2022-10-13T10:11:27;14.40;99.90
52859;DHT22;38721;53.098;6.596;2022-10-13T10:13:58;14.10;99.90
52859;DHT22;38721;53.098;6.596;2022-10-13T10:16:37;14.30;99.90
52859;DHT22;38721;53.098;6.596;2022-10-13T10:19:12;14.20;99.90
52859;DHT22;38721;53.098;6.596;2022-10-13T10:26:58;14.10;99.90
52859;DHT22;38721;53.098;6.596;2022-10-13T10:29:45;14.20;99.90
52859;DHT22;38721;53.098;6.596;2022-10-13T10:32:30;14.20;99.90
52859;DHT22;38721;53.098;6.596;2022-10-13T10:46:49;14.60;99.90
52859;DHT22;38721;53.098;6.596;2022-10-13T10:48:59;14.80;99.90
52859;DHT22;38721;53.098;6.596;2022-10-13T10:51:31;14.60;99.90
52859;DHT22;38721;53.098;6.596;2022-10-13T10:54:08;14.90;99.90
52859;DHT22;38721;53.098;6.596;2022-10-13T10:56:46;14.70;99.90
52859;DHT22;38721;53.098;6.596;2022-10-13T11:06:45;14.80;99.90
52859;DHT22;38721;53.098;6.596;2022-10-13T11:09:11;14.90;99.90
52859;DHT22;38721;53.098;6.596;2022-10-13T11:11:41;14.90;99.90
52859;DHT22;38721;53.098;6.596;2022-10-13T11:17:07;15.00;99.90
52859;DHT22;38721;53.098;6.596;2022-10-13T11:19:36;14.70;99.90
52859;DHT22;38721;53.098;6.596;2022-10-13T11:43:54;15.30;99.90
52859;DHT22;38721;53.098;6.596;2022-10-13T11:49:34;15.60;99.90
52859;DHT22;38721;53.098;6.596;2022-10-13T11:52:34;15.30;99.90
52859;DHT22;38721;53.098;6.596;2022-10-13T11:55:10;15.20;99.90
52859;DHT22;38721;53.098;6.596;2022-10-13T11:57:42;15.50;99.90
52859;DHT22;38721;53.098;6.596;2022-10-13T12:00:14;15.60;99.90
52859;DHT22;38721;53.098;6.596;2022-10-13T12:02:49;15.20;99.90
52859;DHT22;38721;53.098;6.596;2022-10-13T12:05:25;15.10;99.90
52859;DHT22;38721;53.098;6.596;2022-10-13T12:07:54;15.40;99.90
52859;DHT22;38721;53.098;6.596;2022-10-13T12:10:31;15.50;99.90
52859;DHT22;38721;53.098;6.596;2022-10-13T12:12:58;15.50;99.90
52859;DHT22;38721;53.098;6.596;2022-10-13T12:15:33;15.40;99.90
52859;DHT22;38721;53.098;6.596;2022-10-13T12:17:59;15.50;99.90
52859;DHT22;38721;53.098;6.596;2022-10-13T12:20:28;15.40;99.90
52859;DHT22;38721;53.098;6.596;2022-10-13T12:22:55;15.50;99.90
52859;DHT22;38721;53.098;6.596;2022-10-13T12:25:23;15.40;99.90
52859;DHT22;38721;53.098;6.596;2022-10-13T12:27:53;15.20;99.90
52859;DHT22;38721;53.098;6.596;2022-10-13T12:32:52;15.20;99.90
52859;DHT22;38721;53.098;6.596;2022-10-13T12:35:27;15.20;99.90
52859;DHT22;38721;53.098;6.596;2022-10-13T12:37:54;15.10;99.90
52859;DHT22;38721;53.098;6.596;2022-10-13T12:40:21;15.00;99.90
52859;DHT22;38721;53.098;6.596;2022-10-13T12:42:47;15.20;99.90
52859;DHT22;38721;53.098;6.596;2022-10-13T12:45:20;15.00;99.90
52859;DHT22;38721;53.098;6.596;2022-10-13T12:47:51;15.10;99.90
52859;DHT22;38721;53.098;6.596;2022-10-13T12:55:26;15.00;99.90
52859;DHT22;38721;53.098;6.596;2022-10-13T12:57:52;15.20;99.90
52859;DHT22;38721;53.098;6.596;2022-10-13T13:05:29;15.20;99.90
52859;DHT22;38721;53.098;6.596;2022-10-13T13:07:58;15.20;99.90
52859;DHT22;38721;53.098;6.596;2022-10-13T13:10:25;15.30;99.90
52859;DHT22;38721;53.098;6.596;2022-10-13T13:12:52;15.20;99.90
52859;DHT22;38721;53.098;6.596;2022-10-13T13:15:30;15.20;99.90
52859;DHT22;38721;53.098;6.596;2022-10-13T13:18:28;15.30;99.90
52859;DHT22;38721;53.098;6.596;2022-10-13T13:20:55;15.00;99.90
52859;DHT22;38721;53.098;6.596;2022-10-13T13:23:21;14.90;99.90
52859;DHT22;38721;53.098;6.596;2022-10-13T13:26:18;15.00;99.90
52859;DHT22;38721;53.098;6.596;2022-10-13T13:28:54;15.00;99.90
52859;DHT22;38721;53.098;6.596;2022-10-13T13:31:24;14.90;99.90
52859;DHT22;38721;53.098;6.596;2022-10-13T13:33:50;15.00;99.90
52859;DHT22;38721;53.098;6.596;2022-10-13T13:36:21;15.30;99.90
52859;DHT22;38721;53.098;6.596;2022-10-13T13:38:48;15.00;99.90
52859;DHT22;38721;53.098;6.596;2022-10-13T13:41:14;15.30;99.90
52859;DHT22;38721;53.098;6.596;2022-10-13T13:43:40;15.20;99.90
52859;DHT22;38721;53.098;6.596;2022-10-13T13:46:13;15.00;99.90
52859;DHT22;38721;53.098;6.596;2022-10-13T13:48:39;15.30;99.90
52859;DHT22;38721;53.098;6.596;2022-10-13T13:51:06;14.90;99.90
52859;DHT22;38721;53.098;6.596;2022-10-13T13:53:32;15.00;99.90
52859;DHT22;38721;53.098;6.596;2022-10-13T13:55:57;15.30;99.90
52859;DHT22;38721;53.098;6.596;2022-10-13T13:58:23;15.30;99.90
52859;DHT22;38721;53.098;6.596;2022-10-13T14:00:49;15.00;99.90
52859;DHT22;38721;53.098;6.596;2022-10-13T14:03:15;14.90;99.90
52859;DHT22;38721;53.098;6.596;2022-10-13T14:05:40;15.40;99.90
52859;DHT22;38721;53.098;6.596;2022-10-13T14:08:06;15.20;99.90
52859;DHT22;38721;53.098;6.596;2022-10-13T14:10:32;15.20;99.90
52859;DHT22;38721;53.098;6.596;2022-10-13T14:12:58;15.20;99.90
52859;DHT22;38721;53.098;6.596;2022-10-13T14:15:25;15.40;99.90
52859;DHT22;38721;53.098;6.596;2022-10-13T14:17:52;15.50;99.90
52859;DHT22;38721;53.098;6.596;2022-10-13T14:20:21;15.20;99.90
52859;DHT22;38721;53.098;6.596;2022-10-13T14:22:47;15.10;99.90
52859;DHT22;38721;53.098;6.596;2022-10-13T14:25:13;15.30;99.90
52859;DHT22;38721;53.098;6.596;2022-10-13T14:27:39;15.20;99.90
52859;DHT22;38721;53.098;6.596;2022-10-13T14:30:05;15.20;99.90
52859;DHT22;38721;53.098;6.596;2022-10-13T14:32:32;15.00;99.90
52859;DHT22;38721;53.098;6.596;2022-10-13T14:34:57;15.10;99.90
52859;DHT22;38721;53.098;6.596;2022-10-13T14:37:23;15.20;99.90
52859;DHT22;38721;53.098;6.596;2022-10-13T14:39:49;15.30;99.90
52859;DHT22;38721;53.098;6.596;2022-10-13T14:42:14;15.20;99.90
52859;DHT22;38721;53.098;6.596;2022-10-13T14:44:40;14.90;99.90
52859;DHT22;38721;53.098;6.596;2022-10-13T14:47:06;15.00;99.90
52859;DHT22;38721;53.098;6.596;2022-10-13T14:49:31;15.10;99.90
52859;DHT22;38721;53.098;6.596;2022-10-13T14:51:57;15.00;99.90
52859;DHT22;38721;53.098;6.596;2022-10-13T14:54:23;15.00;99.90
52859;DHT22;38721;53.098;6.596;2022-10-13T14:56:49;15.00;99.90
52859;DHT22;38721;53.098;6.596;2022-10-13T14:59:15;15.20;99.90
52859;DHT22;38721;53.098;6.596;2022-10-13T15:01:42;15.00;99.90
52859;DHT22;38721;53.098;6.596;2022-10-13T15:04:08;15.20;99.90
52859;DHT22;38721;53.098;6.596;2022-10-13T15:06:34;15.00;99.90
52859;DHT22;38721;53.098;6.596;2022-10-13T15:09:00;15.00;99.90
52859;DHT22;38721;53.098;6.596;2022-10-13T15:11:26;15.20;99.90
52859;DHT22;38721;53.098;6.596;2022-10-13T15:13:52;15.20;99.90
52859;DHT22;38721;53.098;6.596;2022-10-13T15:16:20;15.20;99.90
52859;DHT22;38721;53.098;6.596;2022-10-13T15:18:46;15.20;99.90
52859;DHT22;38721;53.098;6.596;2022-10-13T15:21:12;15.00;99.90
52859;DHT22;38721;53.098;6.596;2022-10-13T15:23:38;15.30;99.90
52859;DHT22;38721;53.098;6.596;2022-10-13T15:26:04;14.90;99.90
52859;DHT22;38721;53.098;6.596;2022-10-13T15:28:35;15.00;99.90
52859;DHT22;38721;53.098;6.596;2022-10-13T15:31:02;14.80;99.90
52859;DHT22;38721;53.098;6.596;2022-10-13T15:33:28;15.10;99.90
52859;DHT22;38721;53.098;6.596;2022-10-13T15:35:54;15.10;99.90
52859;DHT22;38721;53.098;6.596;2022-10-13T15:38:20;15.00;99.90
52859;DHT22;38721;53.098;6.596;2022-10-13T15:40:46;14.90;99.90
52859;DHT22;38721;53.098;6.596;2022-10-13T15:43:16;15.00;99.90
52859;DHT22;38721;53.098;6.596;2022-10-13T15:45:42;14.90;99.90
52859;DHT22;38721;53.098;6.596;2022-10-13T15:48:09;15.00;99.90
52859;DHT22;38721;53.098;6.596;2022-10-13T15:50:38;15.10;99.90
52859;DHT22;38721;53.098;6.596;2022-10-13T15:53:07;15.20;99.90
52859;DHT22;38721;53.098;6.596;2022-10-13T15:55:33;15.20;99.90
52859;DHT22;38721;53.098;6.596;2022-10-13T15:57:59;15.00;99.90
52859;DHT22;38721;53.098;6.596;2022-10-13T16:00:24;15.00;99.90
52859;DHT22;38721;53.098;6.596;2022-10-13T16:02:53;15.10;99.90
52859;DHT22;38721;53.098;6.596;2022-10-13T16:05:19;15.10;99.90
52859;DHT22;38721;53.098;6.596;2022-10-13T16:07:45;15.00;99.90
52859;DHT22;38721;53.098;6.596;2022-10-13T16:10:12;14.90;99.90
52859;DHT22;38721;53.098;6.596;2022-10-13T16:12:39;14.60;99.90
52859;DHT22;38721;53.098;6.596;2022-10-13T16:15:06;14.90;99.90
52859;DHT22;38721;53.098;6.596;2022-10-13T16:17:32;14.60;99.90
52859;DHT22;38721;53.098;6.596;2022-10-13T16:19:58;14.70;99.90
52859;DHT22;38721;53.098;6.596;2022-10-13T16:22:23;14.60;99.90
52859;DHT22;38721;53.098;6.596;2022-10-13T16:24:49;14.40;99.90
52859;DHT22;38721;53.098;6.596;2022-10-13T16:27:15;14.30;99.90
52859;DHT22;38721;53.098;6.596;2022-10-13T16:29:41;14.20;99.90
52859;DHT22;38721;53.098;6.596;2022-10-13T16:32:07;14.30;99.90
52859;DHT22;38721;53.098;6.596;2022-10-13T16:34:32;14.20;99.90
52859;DHT22;38721;53.098;6.596;2022-10-13T16:36:58;14.10;99.90
52859;DHT22;38721;53.098;6.596;2022-10-13T16:39:24;14.00;99.90
52859;DHT22;38721;53.098;6.596;2022-10-13T16:41:51;14.10;99.90
52859;DHT22;38721;53.098;6.596;2022-10-13T16:44:19;14.10;99.90
52859;DHT22;38721;53.098;6.596;2022-10-13T16:46:45;14.00;99.90
52859;DHT22;38721;53.098;6.596;2022-10-13T16:49:14;14.30;99.90
52859;DHT22;38721;53.098;6.596;2022-10-13T16:51:39;14.20;99.90
52859;DHT22;38721;53.098;6.596;2022-10-13T16:54:05;14.20;99.90
52859;DHT22;38721;53.098;6.596;2022-10-13T16:56:31;14.00;99.90
52859;DHT22;38721;53.098;6.596;2022-10-13T16:59:03;14.00;99.90
52859;DHT22;38721;53.098;6.596;2022-10-13T17:01:30;13.90;99.90
52859;DHT22;38721;53.098;6.596;2022-10-13T17:03:56;14.10;99.90
52859;DHT22;38721;53.098;6.596;2022-10-13T17:06:24;14.10;99.90
52859;DHT22;38721;53.098;6.596;2022-10-13T17:08:50;13.80;99.90
52859;DHT22;38721;53.098;6.596;2022-10-13T17:11:22;14.10;99.90
52859;DHT22;38721;53.098;6.596;2022-10-13T17:13:48;13.80;99.90
52859;DHT22;38721;53.098;6.596;2022-10-13T17:16:14;13.70;99.90
52859;DHT22;38721;53.098;6.596;2022-10-13T17:18:40;13.90;99.90
52859;DHT22;38721;53.098;6.596;2022-10-13T17:21:06;13.90;99.90